Time;durP1;ratioP1;P1;durP2;ratioP2;P2;SDS_P1;SDS_P2;PMS_P1;PMS_P2;Temp;Humidity;BMP_temperature;BMP_pressure;BME280_temperature;BME280_humidity;BME280_pressure;Samples;Min_cycle;Max_cycle;Signal;HPM_P1;HPM_P2
2021/06/21 00:02:01;;;;;;;19.90;11.05;;;;;13.50;101340.00;;;;5106300;28;20032;-78
2021/06/21 00:04:28;;;;;;;18.73;12.18;;;;;13.50;101330.00;;;;5105761;28;20490;-79
2021/06/21 00:06:54;;;;;;;15.82;11.75;;;;;13.40;101322.00;;;;5105521;28;20034;-78
2021/06/21 00:09:21;;;;;;;12.45;10.15;;;;;13.30;101348.00;;;;5106915;28;20030;-79
2021/06/21 00:11:48;;;;;;;12.93;8.68;;;;;13.20;101342.00;;;;5105732;28;20036;-79
2021/06/21 00:14:15;;;;;;;15.75;8.38;;;;;13.10;101327.00;;;;5106569;28;20028;-78
2021/06/21 00:16:41;;;;;;;11.65;8.32;;;;;13.00;101328.00;;;;5106602;28;20020;-78
2021/06/21 00:19:08;;;;;;;11.00;8.68;;;;;12.90;101350.00;;;;5106673;28;20498;-79
2021/06/21 00:21:35;;;;;;;9.35;8.35;;;;;12.80;101340.00;;;;5106431;28;20028;-77
2021/06/21 00:24:01;;;;;;;9.52;7.93;;;;;12.80;101351.00;;;;5105138;28;20065;-79
2021/06/21 00:26:28;;;;;;;10.38;7.15;;;;;12.80;101348.00;;;;5104559;28;20031;-78
2021/06/21 00:28:55;;;;;;;12.48;8.52;;;;;12.70;101360.00;;;;5104384;28;20060;-78
2021/06/21 00:31:21;;;;;;;8.70;7.20;;;;;12.60;101329.00;;;;5105439;28;20055;-80
2021/06/21 00:33:48;;;;;;;17.77;8.55;;;;;12.50;101334.00;;;;5105886;28;20038;-79
2021/06/21 00:36:14;;;;;;;13.00;8.68;;;;;12.40;101340.00;;;;5106131;28;20024;-78
2021/06/21 00:38:41;;;;;;;9.73;8.27;;;;;12.30;101317.00;;;;5107102;28;20027;-79
2021/06/21 00:41:07;;;;;;;14.82;8.27;;;;;12.30;101331.00;;;;5105109;28;20478;-78
2021/06/21 00:43:34;;;;;;;10.43;8.75;;;;;12.20;101331.00;;;;5105208;28;20059;-79
2021/06/21 00:46:01;;;;;;;12.10;9.40;;;;;12.10;101326.00;;;;5104649;28;20043;-78
2021/06/21 00:48:34;;;;;;;11.00;9.13;;;;;12.10;101322.00;;;;5105159;28;20437;-79
2021/06/21 00:51:00;;;;;;;21.40;9.93;;;;;12.20;101323.00;;;;5103728;28;20028;-80
2021/06/21 00:53:27;;;;;;;10.05;9.02;;;;;12.20;101289.00;;;;5104860;28;20035;-81
2021/06/21 00:55:54;;;;;;;12.40;9.85;;;;;12.30;101306.00;;;;5106151;28;20052;-80
2021/06/21 00:58:21;;;;;;;11.88;9.73;;;;;12.40;101307.00;;;;5109158;28;20124;-80
2021/06/21 01:00:50;;;;;;;13.57;10.10;;;;;12.40;101330.00;;;;5108366;28;20030;-79
2021/06/21 01:03:16;;;;;;;11.52;9.07;;;;;12.50;101322.00;;;;5110067;28;20059;-79
2021/06/21 01:05:43;;;;;;;15.65;9.32;;;;;12.50;101310.00;;;;5109547;28;20034;-78
2021/06/21 01:08:10;;;;;;;16.63;9.57;;;;;12.40;101323.00;;;;5109925;28;20030;-80
2021/06/21 01:10:39;;;;;;;13.98;8.73;;;;;12.40;101296.00;;;;5109067;28;20031;-81
2021/06/21 01:13:36;;;;;;;13.02;8.63;;;;;12.40;101319.00;;;;5108210;28;20030;-79
2021/06/21 01:16:33;;;;;;;10.57;7.60;;;;;12.50;101306.00;;;;5108389;28;20038;-81
2021/06/21 01:19:37;;;;;;;16.30;8.27;;;;;12.50;101320.00;;;;5108721;28;20028;-80
2021/06/21 01:22:27;;;;;;;15.18;8.95;;;;;12.50;101319.00;;;;5070988;28;20163;-82
2021/06/21 01:25:12;;;;;;;11.05;7.97;;;;;12.50;101316.00;;;;5109776;28;20060;-78
2021/06/21 01:27:53;;;;;;;10.38;8.07;;;;;12.60;101324.00;;;;5109486;28;20066;-78
2021/06/21 01:30:25;;;;;;;13.48;8.43;;;;;12.60;101311.00;;;;5109687;28;20039;-80
2021/06/21 01:33:10;;;;;;;;;;;;;12.60;101310.00;;;;5110725;28;21104;-78
2021/06/21 01:35:46;;;;;;;11.02;8.93;;;;;12.60;101297.00;;;;5109768;28;20382;-82
2021/06/21 01:38:25;;;;;;;11.25;9.05;;;;;12.60;101307.00;;;;5108785;28;20051;-79
2021/06/21 01:40:54;;;;;;;13.48;9.13;;;;;12.50;101320.00;;;;5108955;28;20034;-79
2021/06/21 01:43:26;;;;;;;13.32;8.75;;;;;12.50;101288.00;;;;5108727;28;20070;-79
2021/06/21 01:45:52;;;;;;;13.98;9.80;;;;;12.50;101309.00;;;;5089513;28;20085;-80
2021/06/21 01:48:23;;;;;;;17.35;9.98;;;;;12.50;101301.00;;;;5108415;28;20035;-81
2021/06/21 01:50:55;;;;;;;9.95;8.93;;;;;12.40;101306.00;;;;5108307;28;20032;-79
2021/06/21 01:53:25;;;;;;;13.98;9.10;;;;;12.30;101292.00;;;;5108188;28;20067;-81
2021/06/21 01:56:06;;;;;;;14.88;8.88;;;;;12.30;101276.00;;;;5108093;28;20556;-80
2021/06/21 01:58:36;;;;;;;11.13;9.48;;;;;12.30;101300.00;;;;5107378;28;20093;-79
2021/06/21 02:01:05;;;;;;;13.27;9.68;;;;;12.30;101298.00;;;;5108571;28;20035;-80
2021/06/21 02:03:33;;;;;;;17.85;10.48;;;;;12.20;101326.00;;;;5108518;28;20027;-81
2021/06/21 02:06:02;;;;;;;10.95;9.52;;;;;12.10;101267.00;;;;5106967;28;20027;-81
2021/06/21 02:08:32;;;;;;;12.60;10.48;;;;;12.10;101291.00;;;;5107689;28;20547;-81
2021/06/21 02:10:59;;;;;;;19.00;10.43;;;;;12.00;101293.00;;;;5108187;28;20495;-80
2021/06/21 02:13:26;;;;;;;18.75;10.18;;;;;12.00;101296.00;;;;5108418;28;20063;-80
2021/06/21 02:15:55;;;;;;;16.63;9.77;;;;;12.00;101303.00;;;;5108338;28;20024;-80
2021/06/21 02:18:22;;;;;;;13.48;10.50;;;;;11.90;101287.00;;;;5107726;28;20732;-79
2021/06/21 02:20:52;;;;;;;11.70;9.80;;;;;11.80;101299.00;;;;5107926;28;20043;-80
2021/06/21 02:23:23;;;;;;;14.05;9.02;;;;;11.80;101284.00;;;;5107377;28;20111;-80
2021/06/21 02:25:51;;;;;;;12.32;9.32;;;;;11.80;101283.00;;;;5107606;28;20027;-80
2021/06/21 02:28:19;;;;;;;15.52;9.20;;;;;11.80;101290.00;;;;5108564;28;20038;-81
2021/06/21 02:30:50;;;;;;;19.45;9.85;;;;;11.80;101277.00;;;;5107957;28;20060;-81
2021/06/21 02:33:18;;;;;;;15.57;8.90;;;;;11.70;101291.00;;;;5107948;28;20078;-82
2021/06/21 02:35:47;;;;;;;14.55;9.25;;;;;11.70;101289.00;;;;5107951;28;20063;-80
2021/06/21 02:38:14;;;;;;;14.80;10.15;;;;;11.60;101306.00;;;;5107903;28;20042;-80
2021/06/21 02:40:41;;;;;;;13.73;9.15;;;;;11.50;101295.00;;;;5108429;28;20479;-80
2021/06/21 02:43:08;;;;;;;15.93;9.93;;;;;11.50;101289.00;;;;5108542;28;20036;-80
2021/06/21 02:45:35;;;;;;;20.08;10.55;;;;;11.50;101305.00;;;;5108324;28;20413;-80
2021/06/21 02:48:04;;;;;;;18.52;11.57;;;;;11.50;101312.00;;;;5108389;28;20028;-80
2021/06/21 02:50:31;;;;;;;19.83;11.30;;;;;11.50;101321.00;;;;5107997;28;20077;-78
2021/06/21 02:53:18;;;;;;;23.25;11.73;;;;;11.60;101337.00;;;;5089943;28;20034;-80
2021/06/21 02:55:59;;;;;;;21.55;10.60;;;;;11.60;101333.00;;;;5108132;28;20490;-79
2021/06/21 02:58:29;;;;;;;15.85;10.68;;;;;11.70;101327.00;;;;5107875;28;20031;-79
2021/06/21 03:00:59;;;;;;;18.90;11.68;;;;;11.80;101330.00;;;;5107371;28;20024;-79
2021/06/21 03:03:31;;;;;;;22.00;12.90;;;;;11.90;101319.00;;;;5107824;28;20047;-80
2021/06/21 03:05:59;;;;;;;19.27;12.15;;;;;11.90;101327.00;;;;5107810;28;20042;-78
2021/06/21 03:08:29;;;;;;;21.25;11.90;;;;;12.00;101331.00;;;;5107522;28;20494;-80
2021/06/21 03:10:58;;;;;;;24.50;13.07;;;;;12.00;101333.00;;;;5107469;28;20035;-79
2021/06/21 03:13:25;;;;;;;17.30;11.88;;;;;12.10;101339.00;;;;5107407;28;20064;-80
2021/06/21 03:15:54;;;;;;;19.23;11.45;;;;;12.20;101329.00;;;;5107417;28;20027;-80
2021/06/21 03:18:22;;;;;;;15.05;12.32;;;;;12.20;101323.00;;;;5107823;28;20027;-80
2021/06/21 03:20:54;;;;;;;16.27;12.00;;;;;12.20;101338.00;;;;5107555;28;20181;-78
2021/06/21 03:23:25;;;;;;;15.15;10.65;;;;;12.30;101347.00;;;;5106992;28;20032;-80
2021/06/21 03:25:53;;;;;;;19.58;10.63;;;;;12.30;101359.00;;;;5107138;28;20035;-80
2021/06/21 03:28:21;;;;;;;17.15;10.98;;;;;12.30;101337.00;;;;5107132;28;20076;-79
2021/06/21 03:30:52;;;;;;;18.10;11.18;;;;;12.30;101341.00;;;;5106760;28;20394;-77
2021/06/21 03:33:20;;;;;;;15.83;10.60;;;;;12.40;101363.00;;;;5107032;28;20035;-80
2021/06/21 03:35:47;;;;;;;18.58;11.02;;;;;12.40;101372.00;;;;5107118;28;20609;-81
2021/06/21 03:38:21;;;;;;;15.40;10.60;;;;;12.40;101371.00;;;;5088457;28;20035;-78
2021/06/21 03:40:52;;;;;;;19.60;11.70;;;;;12.40;101373.00;;;;5107579;28;20035;-77
2021/06/21 03:43:21;;;;;;;15.13;10.05;;;;;12.40;101363.00;;;;5107325;28;20489;-81
2021/06/21 03:45:49;;;;;;;16.90;10.38;;;;;12.50;101373.00;;;;5106500;28;20126;-80
2021/06/21 03:48:17;;;;;;;18.52;11.40;;;;;12.50;101392.00;;;;5106687;28;20028;-78
2021/06/21 03:50:44;;;;;;;15.57;10.32;;;;;12.50;101387.00;;;;5106953;28;20024;-78
2021/06/21 03:53:11;;;;;;;16.42;10.43;;;;;12.50;101375.00;;;;5106832;28;20039;-78
2021/06/21 03:55:38;;;;;;;15.45;10.63;;;;;12.50;101359.00;;;;5106519;28;20043;-80
2021/06/21 03:58:06;;;;;;;18.63;11.02;;;;;12.40;101359.00;;;;5106745;28;20026;-79
2021/06/21 04:00:36;;;;;;;21.58;11.48;;;;;12.50;101346.00;;;;5106512;28;20055;-79
2021/06/21 04:03:06;;;;;;;20.40;10.75;;;;;12.50;101376.00;;;;5106383;28;20176;-79
2021/06/21 04:05:33;;;;;;;17.40;10.45;;;;;12.50;101338.00;;;;5105825;28;20035;-79
2021/06/21 04:07:59;;;;;;;16.60;10.20;;;;;12.50;101332.00;;;;5106030;28;20034;-78
2021/06/21 04:10:27;;;;;;;17.55;10.70;;;;;12.50;101340.00;;;;5105896;28;20585;-78
2021/06/21 04:12:54;;;;;;;20.17;11.55;;;;;12.50;101334.00;;;;5105735;28;20376;-81
2021/06/21 04:15:31;;;;;;;21.65;12.52;;;;;12.60;101352.00;;;;5105307;28;20039;-77
2021/06/21 04:18:02;;;;;;;14.95;10.52;;;;;12.60;101339.00;;;;5105068;28;20114;-80
2021/06/21 04:20:29;;;;;;;22.02;10.73;;;;;12.50;101349.00;;;;5106344;28;20063;-80
2021/06/21 04:22:56;;;;;;;19.45;12.07;;;;;12.60;101339.00;;;;5105938;28;20110;-78
2021/06/21 04:25:23;;;;;;;17.88;12.07;;;;;12.60;101350.00;;;;5105497;28;20128;-80
2021/06/21 04:27:51;;;;;;;15.75;11.25;;;;;12.50;101357.00;;;;5105711;28;20067;-80
2021/06/21 04:30:20;;;;;;;15.00;11.98;;;;;12.50;101361.00;;;;5107326;28;20028;-79
2021/06/21 04:32:47;;;;;;;16.77;11.80;;;;;12.50;101331.00;;;;5110039;28;20482;-80
2021/06/21 04:35:16;;;;;;;17.52;10.90;;;;;12.50;101323.00;;;;5110475;28;20031;-81
2021/06/21 04:37:43;;;;;;;14.50;10.75;;;;;12.50;101310.00;;;;5110411;28;20110;-78
2021/06/21 04:40:12;;;;;;;16.52;10.65;;;;;12.50;101319.00;;;;5110456;28;20027;-81
2021/06/21 04:42:39;;;;;;;17.95;10.68;;;;;12.50;101318.00;;;;5110289;28;20088;-78
2021/06/21 04:45:07;;;;;;;18.67;12.65;;;;;12.50;101325.00;;;;5108823;28;20573;-79
2021/06/21 04:47:33;;;;;;;18.20;12.48;;;;;12.50;101310.00;;;;5090757;28;20067;-80
2021/06/21 04:50:05;;;;;;;13.65;12.18;;;;;12.40;101318.00;;;;5091004;28;20800;-82
2021/06/21 04:52:37;;;;;;;19.45;12.00;;;;;12.40;101348.00;;;;5110156;28;20506;-79
2021/06/21 04:55:09;;;;;;;22.65;12.23;;;;;12.30;101341.00;;;;5109837;28;20854;-80
2021/06/21 04:57:36;;;;;;;16.65;11.75;;;;;12.30;101321.00;;;;5109250;28;20490;-81
2021/06/21 05:00:07;;;;;;;17.20;12.07;;;;;12.30;101344.00;;;;5108789;28;20043;-79
2021/06/21 05:02:34;;;;;;;16.27;11.70;;;;;12.30;101332.00;;;;5108955;28;20030;-79
2021/06/21 05:05:00;;;;;;;17.63;12.35;;;;;12.30;101313.00;;;;5108722;28;20080;-79
2021/06/21 05:07:27;;;;;;;17.13;12.65;;;;;12.30;101342.00;;;;5108444;28;20039;-80
2021/06/21 05:09:53;;;;;;;22.83;13.15;;;;;12.30;101342.00;;;;5108620;28;20031;-79
2021/06/21 05:12:20;;;;;;;20.02;13.05;;;;;12.20;101336.00;;;;5109096;28;20028;-81
2021/06/21 05:14:47;;;;;;;17.50;12.30;;;;;12.20;101314.00;;;;5109499;28;20039;-81
2021/06/21 05:17:13;;;;;;;19.52;12.40;;;;;12.10;101316.00;;;;5108427;28;20364;-80
2021/06/21 05:19:40;;;;;;;16.52;12.50;;;;;12.10;101299.00;;;;5108885;28;20046;-79
2021/06/21 05:22:07;;;;;;;20.92;13.88;;;;;12.10;101291.00;;;;5107666;28;20027;-81
2021/06/21 05:24:34;;;;;;;25.52;13.25;;;;;12.00;101273.00;;;;5108230;28;20482;-80
2021/06/21 05:27:01;;;;;;;23.48;15.05;;;;;12.10;101312.00;;;;5108432;28;20490;-80
2021/06/21 05:29:29;;;;;;;23.88;13.05;;;;;12.10;101303.00;;;;5108586;28;20038;-79
2021/06/21 05:31:56;;;;;;;21.38;13.20;;;;;12.10;101294.00;;;;5109655;28;20896;-79
2021/06/21 05:34:25;;;;;;;18.27;12.15;;;;;12.00;101317.00;;;;5109678;28;20024;-80
2021/06/21 05:36:52;;;;;;;21.23;12.45;;;;;12.00;101295.00;;;;5109364;28;20059;-80
2021/06/21 05:39:18;;;;;;;19.23;12.45;;;;;12.00;101285.00;;;;5109248;28;20509;-77
2021/06/21 05:41:45;;;;;;;23.23;13.15;;;;;11.90;101287.00;;;;5106586;28;20482;-79
2021/06/21 05:44:11;;;;;;;20.25;12.50;;;;;11.90;101289.00;;;;5109099;28;20034;-79
2021/06/21 05:46:38;;;;;;;24.33;13.93;;;;;11.90;101288.00;;;;5108735;28;20070;-78
2021/06/21 05:49:05;;;;;;;19.48;12.13;;;;;11.80;101270.00;;;;5108427;28;20027;-81
2021/06/21 05:51:32;;;;;;;23.23;13.38;;;;;11.90;101290.00;;;;5107882;28;20031;-80
2021/06/21 05:53:58;;;;;;;19.33;13.80;;;;;11.90;101271.00;;;;5108874;28;20027;-81
2021/06/21 05:56:25;;;;;;;25.33;14.40;;;;;11.90;101279.00;;;;5109257;28;20627;-80
2021/06/21 05:58:51;;;;;;;22.65;14.82;;;;;11.90;101277.00;;;;5108617;28;20084;-79
2021/06/21 06:01:18;;;;;;;25.08;13.93;;;;;12.00;101279.00;;;;5109653;28;20417;-78
2021/06/21 06:03:44;;;;;;;26.92;14.57;;;;;12.00;101273.00;;;;5109030;28;20030;-78
2021/06/21 06:06:11;;;;;;;22.42;13.75;;;;;12.00;101295.00;;;;5108862;28;20063;-79
2021/06/21 06:08:37;;;;;;;24.92;14.48;;;;;12.00;101290.00;;;;5108742;28;20070;-77
2021/06/21 06:11:04;;;;;;;24.58;13.82;;;;;12.10;101286.00;;;;5109414;28;20575;-79
2021/06/21 06:13:30;;;;;;;26.40;13.40;;;;;12.10;101299.00;;;;5108014;28;20486;-80
2021/06/21 06:15:57;;;;;;;26.02;14.20;;;;;12.10;101278.00;;;;5108005;28;20413;-80
2021/06/21 06:18:23;;;;;;;19.95;12.98;;;;;12.10;101261.00;;;;5108902;28;20510;-78
2021/06/21 06:20:50;;;;;;;23.13;13.00;;;;;12.20;101299.00;;;;5108517;28;20027;-78
2021/06/21 06:23:17;;;;;;;20.60;12.00;;;;;12.20;101287.00;;;;5109054;28;20515;-78
2021/06/21 06:25:43;;;;;;;20.67;12.95;;;;;12.20;101270.00;;;;5107670;28;20390;-80
2021/06/21 06:28:10;;;;;;;18.67;12.52;;;;;12.20;101256.00;;;;5108094;28;20045;-79
2021/06/21 06:30:37;;;;;;;19.45;13.52;;;;;12.20;101276.00;;;;5108651;28;20031;-78
2021/06/21 06:33:04;;;;;;;22.25;13.25;;;;;12.20;101257.00;;;;5107432;28;20110;-80
2021/06/21 06:35:30;;;;;;;19.83;12.70;;;;;12.20;101228.00;;;;5107249;28;20593;-80
2021/06/21 06:37:57;;;;;;;22.33;13.80;;;;;12.20;101259.00;;;;5107421;28;20027;-78
2021/06/21 06:40:23;;;;;;;21.75;13.13;;;;;12.20;101287.00;;;;5107108;28;20027;-79
2021/06/21 06:42:54;;;;;;;18.90;12.55;;;;;12.20;101274.00;;;;5107715;28;20031;-80
2021/06/21 06:45:22;;;;;;;19.92;13.07;;;;;12.20;101274.00;;;;5107219;28;20081;-80
2021/06/21 06:47:48;;;;;;;22.83;12.75;;;;;12.20;101279.00;;;;5089215;28;20070;-79
2021/06/21 06:50:16;;;;;;;27.00;13.55;;;;;12.20;101289.00;;;;5106899;28;20066;-79
2021/06/21 06:52:44;;;;;;;22.08;13.77;;;;;12.20;101278.00;;;;5106496;28;20035;-80
2021/06/21 06:57:56;;;;;;;24.65;14.95;;;;;12.20;101289.00;;;;5107796;28;20139;-80
2021/06/21 07:00:23;;;;;;;26.63;14.93;;;;;12.20;101274.00;;;;5106790;28;20085;-79
2021/06/21 07:02:50;;;;;;;25.63;13.82;;;;;12.20;101239.00;;;;5107874;28;20026;-78
2021/06/21 07:05:16;;;;;;;20.85;12.63;;;;;12.20;101239.00;;;;5107661;28;20399;-80
2021/06/21 07:07:43;;;;;;;17.63;12.35;;;;;12.20;101262.00;;;;5106814;28;20028;-79
2021/06/21 07:10:10;;;;;;;20.58;13.57;;;;;12.20;101251.00;;;;5106336;28;20459;-78
2021/06/21 07:12:36;;;;;;;27.60;13.30;;;;;12.10;101238.00;;;;5105886;28;20106;-79
2021/06/21 07:15:04;;;;;;;20.75;13.88;;;;;12.10;101242.00;;;;5106342;28;20031;-80
2021/06/21 07:17:30;;;;;;;25.52;14.50;;;;;12.10;101247.00;;;;5105724;28;20095;-80
2021/06/21 07:19:57;;;;;;;30.38;15.10;;;;;12.20;101224.00;;;;5106290;28;20051;-79
2021/06/21 07:22:23;;;;;;;27.77;13.63;;;;;12.20;101220.00;;;;5105597;28;20030;-78
2021/06/21 07:24:51;;;;;;;25.75;14.40;;;;;12.20;101235.00;;;;5106095;28;20482;-79
2021/06/21 07:27:18;;;;;;;22.88;14.38;;;;;12.20;101235.00;;;;5105871;28;20031;-80
2021/06/21 07:29:44;;;;;;;24.27;14.35;;;;;12.20;101222.00;;;;5105607;28;20036;-80
2021/06/21 07:32:11;;;;;;;24.00;14.88;;;;;12.20;101205.00;;;;5105376;28;20069;-79
2021/06/21 07:34:38;;;;;;;21.52;13.68;;;;;12.30;101240.00;;;;5106015;28;20076;-80
2021/06/21 07:37:05;;;;;;;21.42;13.13;;;;;12.30;101219.00;;;;5105377;28;20032;-79
2021/06/21 07:39:32;;;;;;;24.50;13.25;;;;;12.20;101238.00;;;;5105769;28;20068;-79
2021/06/21 07:41:58;;;;;;;20.02;13.38;;;;;12.20;101234.00;;;;5105596;28;20556;-79
2021/06/21 07:44:26;;;;;;;22.65;12.82;;;;;12.30;101231.00;;;;5105915;28;20036;-80
2021/06/21 07:46:53;;;;;;;21.50;13.50;;;;;12.30;101234.00;;;;5105389;28;20406;-80
2021/06/21 07:49:19;;;;;;;21.08;13.70;;;;;12.20;101228.00;;;;5106355;28;20028;-79
2021/06/21 07:51:46;;;;;;;22.88;12.90;;;;;12.30;101232.00;;;;5105881;28;20047;-78
2021/06/21 07:54:14;;;;;;;19.20;12.30;;;;;12.20;101235.00;;;;5105836;28;20024;-79
2021/06/21 07:56:41;;;;;;;17.35;12.07;;;;;12.20;101212.00;;;;5105011;28;20047;-79
2021/06/21 07:59:07;;;;;;;17.02;12.23;;;;;12.20;101216.00;;;;5105256;28;20062;-77
2021/06/21 08:01:34;;;;;;;17.27;12.23;;;;;12.10;101207.00;;;;5106117;28;20024;-78
2021/06/21 08:04:02;;;;;;;20.83;12.48;;;;;12.10;101210.00;;;;5105101;28;20040;-80
2021/06/21 08:06:28;;;;;;;21.05;12.15;;;;;12.20;101229.00;;;;5105070;28;20578;-79
2021/06/21 08:08:55;;;;;;;20.17;12.80;;;;;12.20;101202.00;;;;5104857;28;20055;-79
2021/06/21 08:11:22;;;;;;;20.13;11.48;;;;;12.20;101209.00;;;;5104647;28;20110;-79
2021/06/21 08:13:49;;;;;;;23.77;13.38;;;;;12.20;101216.00;;;;5105245;28;20031;-79
2021/06/21 08:16:15;;;;;;;20.60;12.93;;;;;12.20;101202.00;;;;5105521;28;20027;-78
2021/06/21 08:18:42;;;;;;;20.48;13.07;;;;;12.20;101208.00;;;;5105040;28;20031;-78
2021/06/21 08:21:08;;;;;;;21.75;12.40;;;;;12.20;101225.00;;;;5105344;28;20428;-79
2021/06/21 08:23:35;;;;;;;28.83;12.60;;;;;12.20;101229.00;;;;5105281;28;20076;-79
2021/06/21 08:26:03;;;;;;;22.40;13.13;;;;;12.20;101228.00;;;;5104699;28;20031;-79
2021/06/21 08:28:30;;;;;;;20.17;12.48;;;;;12.20;101234.00;;;;5105595;28;20023;-80
2021/06/21 08:30:57;;;;;;;20.20;11.90;;;;;12.30;101240.00;;;;5105552;28;20498;-79
2021/06/21 08:33:24;;;;;;;17.27;11.75;;;;;12.20;101237.00;;;;5104810;28;20106;-80
2021/06/21 08:35:51;;;;;;;19.88;13.02;;;;;12.20;101239.00;;;;5105017;28;20027;-80
2021/06/21 08:38:17;;;;;;;20.73;12.15;;;;;12.20;101248.00;;;;5105293;28;20092;-77
2021/06/21 08:40:44;;;;;;;15.93;12.23;;;;;12.30;101241.00;;;;5105003;28;20542;-78
2021/06/21 08:43:12;;;;;;;20.27;11.82;;;;;12.30;101244.00;;;;5104449;28;20027;-79
2021/06/21 08:45:39;;;;;;;18.98;12.65;;;;;12.30;101264.00;;;;5104523;28;20067;-80
2021/06/21 08:48:10;;;;;;;20.02;12.55;;;;;12.30;101248.00;;;;5104924;28;20031;-80
2021/06/21 08:50:39;;;;;;;20.90;12.53;;;;;12.30;101242.00;;;;5104558;28;20138;-79
2021/06/21 08:53:06;;;;;;;21.52;13.55;;;;;12.40;101247.00;;;;5104625;28;20276;-77
2021/06/21 08:55:32;;;;;;;18.10;11.63;;;;;12.40;101232.00;;;;5104784;28;20531;-79
2021/06/21 08:58:01;;;;;;;23.50;12.35;;;;;12.40;101250.00;;;;5087996;28;20524;-77
2021/06/21 09:00:27;;;;;;;18.00;11.05;;;;;12.40;101238.00;;;;5104682;28;20035;-78
2021/06/21 09:02:54;;;;;;;33.50;14.73;;;;;12.50;101262.00;;;;5106737;28;20071;-78
2021/06/21 09:05:21;;;;;;;17.83;12.57;;;;;12.50;101254.00;;;;5105507;28;20027;-79
2021/06/21 09:07:59;;;;;;;22.05;12.15;;;;;12.50;101265.00;;;;5105222;28;20035;-80
2021/06/21 09:10:28;;;;;;;17.05;11.52;;;;;12.50;101241.00;;;;5105072;28;20066;-79
2021/06/21 09:13:15;;;;;;;19.10;10.95;;;;;12.50;101255.00;;;;5104447;28;20034;-78
2021/06/21 09:15:45;;;;;;;17.25;11.50;;;;;12.50;101254.00;;;;5105765;28;20108;-80
2021/06/21 09:18:33;;;;;;;18.08;10.52;;;;;12.50;101257.00;;;;5108593;28;20402;-78
2021/06/21 09:21:23;;;;;;;17.75;10.57;;;;;12.50;101267.00;;;;5109086;28;20027;-81
2021/06/21 09:23:53;;;;;;;32.38;11.48;;;;;12.50;101261.00;;;;5107943;28;20042;-79
2021/06/21 09:26:28;;;;;;;26.15;11.80;;;;;12.60;101265.00;;;;5108114;28;20036;-78
2021/06/21 09:28:56;;;;;;;22.67;11.65;;;;;12.60;101247.00;;;;5108401;28;20142;-80
2021/06/21 09:31:25;;;;;;;16.38;9.98;;;;;12.60;101247.00;;;;5108209;28;20494;-79
2021/06/21 09:34:13;;;;;;;17.92;10.68;;;;;12.60;101272.00;;;;5108482;28;20038;-80
2021/06/21 09:36:39;;;;;;;13.00;9.80;;;;;12.60;101264.00;;;;5105585;28;20050;-79
2021/06/21 09:39:28;;;;;;;16.38;10.00;;;;;12.60;101274.00;;;;5108106;28;20023;-78
2021/06/21 09:42:09;;;;;;;15.30;10.35;;;;;12.70;101267.00;;;;5108259;28;20028;-80
2021/06/21 09:44:42;;;;;;;23.20;10.48;;;;;12.70;101290.00;;;;5108485;28;20070;-80
2021/06/21 09:47:23;;;;;;;15.68;10.18;;;;;12.70;101273.00;;;;5108187;28;20486;-78
2021/06/21 09:50:03;;;;;;;13.65;10.00;;;;;12.70;101265.00;;;;5108803;28;20616;-78
2021/06/21 09:52:39;;;;;;;10.32;8.95;;;;;12.70;101243.00;;;;5108093;28;20107;-81
2021/06/21 09:55:28;;;;;;;12.90;8.75;;;;;12.60;101288.00;;;;5095500;28;20135;-78
2021/06/21 09:58:12;;;;;;;12.75;7.82;;;;;12.60;101271.00;;;;5068121;28;20123;-80
2021/06/21 10:00:49;;;;;;;6.20;5.60;;;;;12.60;101289.00;;;;5067392;28;20037;-78
2021/06/21 10:03:25;;;;;;;5.60;5.10;;;;;12.70;101270.00;;;;5067372;28;20499;-81
2021/06/21 10:06:12;;;;;;;6.40;5.72;;;;;12.70;101257.00;;;;5067264;28;20072;-82
2021/06/21 10:08:54;;;;;;;8.30;6.10;;;;;12.70;101301.00;;;;5068153;28;20029;-79
2021/06/21 10:11:33;;;;;;;13.30;6.00;;;;;12.70;101284.00;;;;5067984;28;20028;-79
2021/06/21 10:14:06;;;;;;;10.55;5.18;;;;;12.80;101294.00;;;;5067753;28;20052;-80
2021/06/21 10:16:33;;;;;;;6.57;5.05;;;;;12.80;101303.00;;;;5067957;28;20573;-81
2021/06/21 10:19:00;;;;;;;11.23;6.13;;;;;12.80;101306.00;;;;5068359;28;20527;-79
2021/06/21 10:21:28;;;;;;;10.52;5.05;;;;;12.80;101301.00;;;;5068424;28;20031;-79
2021/06/21 10:23:56;;;;;;;10.35;4.82;;;;;12.80;101319.00;;;;5068403;28;20610;-78
2021/06/21 10:26:22;;;;;;;5.15;4.35;;;;;12.80;101305.00;;;;5068151;28;20024;-79
2021/06/21 10:28:51;;;;;;;6.13;4.35;;;;;12.80;101294.00;;;;5066470;28;20063;-80
2021/06/21 10:31:29;;;;;;;5.65;4.68;;;;;12.70;101313.00;;;;5067736;28;20028;-78
2021/06/21 10:34:00;;;;;;;6.30;4.40;;;;;12.70;101342.00;;;;5068006;28;20459;-79
2021/06/21 10:36:45;;;;;;;5.70;5.07;;;;;12.80;101331.00;;;;5067911;28;20028;-78
2021/06/21 10:39:17;;;;;;;6.43;5.15;;;;;12.80;101322.00;;;;5067232;28;20113;-79
2021/06/21 10:42:21;;;;;;;6.80;5.00;;;;;12.80;101348.00;;;;5064511;28;20115;-78
2021/06/21 10:44:56;;;;;;;6.35;5.20;;;;;12.80;101322.00;;;;5066350;28;20155;-79
2021/06/21 10:47:26;;;;;;;6.35;4.50;;;;;12.90;101339.00;;;;5067362;28;20028;-80
2021/06/21 10:49:58;;;;;;;6.85;5.65;;;;;12.90;101335.00;;;;5067497;28;20119;-78
2021/06/21 10:52:39;;;;;;;6.85;4.88;;;;;12.90;101345.00;;;;5067764;28;20146;-80
2021/06/21 10:57:58;;;;;;;3.78;3.05;;;;;13.00;101317.00;;;;5067365;28;20560;-80
2021/06/21 11:00:42;;;;;;;2.10;1.90;;;;;13.10;101352.00;;;;5067775;28;20070;-78
2021/06/21 11:03:28;;;;;;;3.17;2.88;;;;;13.10;101334.00;;;;5068227;28;20115;-79
2021/06/21 11:06:00;;;;;;;3.70;2.80;;;;;13.20;101346.00;;;;5067089;28;20044;-79
2021/06/21 11:08:39;;;;;;;11.65;3.28;;;;;13.30;101350.00;;;;5066289;28;20047;-78
2021/06/21 11:11:38;;;;;;;11.40;2.78;;;;;13.40;101357.00;;;;5066820;28;20025;-79
2021/06/21 11:14:31;;;;;;;3.75;2.58;;;;;13.50;101370.00;;;;5066702;28;20028;-79
2021/06/21 11:17:17;;;;;;;6.18;2.47;;;;;13.50;101370.00;;;;5064834;28;20135;-76
2021/06/21 11:19:44;;;;;;;4.75;2.47;;;;;13.50;101370.00;;;;5065699;28;20063;-79
2021/06/21 11:22:12;;;;;;;4.90;2.58;;;;;13.50;101367.00;;;;5066595;28;20060;-79
2021/06/21 11:24:46;;;;;;;20.13;3.53;;;;;13.60;101389.00;;;;5066580;28;20104;-79
2021/06/21 11:27:24;;;;;;;3.25;2.30;;;;;13.50;101380.00;;;;5067097;28;20032;-79
2021/06/21 11:29:57;;;;;;;14.60;6.18;;;;;13.60;101386.00;;;;5066148;28;20244;-80
2021/06/21 11:32:25;;;;;;;17.77;4.50;;;;;13.60;101407.00;;;;5066773;28;20078;-79
2021/06/21 11:34:57;;;;;;;3.70;2.67;;;;;13.60;101369.00;;;;5066615;28;20040;-78
2021/06/21 11:37:41;;;;;;;2.47;2.28;;;;;13.60;101377.00;;;;5066524;28;20028;-79
2021/06/21 11:40:21;;;;;;;2.90;2.47;;;;;13.50;101390.00;;;;5065383;28;20060;-80
2021/06/21 11:42:57;;;;;;;11.05;3.80;;;;;13.50;101405.00;;;;5066129;28;20107;-78
2021/06/21 11:45:55;;;;;;;2.97;2.78;;;;;13.50;101401.00;;;;5066407;28;20033;-83
2021/06/21 11:48:37;;;;;;;3.22;2.75;;;;;13.40;101412.00;;;;5065190;28;20037;-82
2021/06/21 11:51:11;;;;;;;3.60;3.00;;;;;13.40;101397.00;;;;5067350;28;20033;-79
2021/06/21 11:53:44;;;;;;;3.40;3.03;;;;;13.50;101405.00;;;;5066942;28;21129;-81
2021/06/21 11:56:25;;;;;;;4.38;2.85;;;;;13.50;101416.00;;;;5084201;28;20877;-77
2021/06/21 11:58:55;;;;;;;9.15;3.20;;;;;13.50;101410.00;;;;5106577;28;20039;-80
2021/06/21 12:01:26;;;;;;;3.35;2.65;;;;;13.40;101403.00;;;;5107293;28;20413;-79
2021/06/21 12:04:01;;;;;;;5.25;2.80;;;;;13.40;101432.00;;;;5106715;28;20028;-78
2021/06/21 12:06:29;;;;;;;4.78;3.00;;;;;13.50;101409.00;;;;5107056;28;20044;-79
2021/06/21 12:08:56;;;;;;;6.95;3.17;;;;;13.50;101412.00;;;;5106439;28;20023;-78
2021/06/21 12:11:26;;;;;;;25.42;4.88;;;;;13.50;101420.00;;;;5106597;28;20031;-79
2021/06/21 12:14:00;;;;;;;4.40;3.60;;;;;13.60;101411.00;;;;5107056;28;20031;-80
2021/06/21 12:16:28;;;;;;;3.13;2.42;;;;;13.60;101440.00;;;;5105742;28;20064;-79
2021/06/21 12:18:58;;;;;;;3.53;2.33;;;;;13.60;101428.00;;;;5106828;28;20379;-79